Time;durP1;ratioP1;P1;durP2;ratioP2;P2;SDS_P1;SDS_P2;PMS_P1;PMS_P2;Temp;Humidity;BMP_temperature;BMP_pressure;BME280_temperature;BME280_humidity;BME280_pressure;Samples;Min_cycle;Max_cycle;Signal;HPM_P1;HPM_P2
2022/02/13 00:00:47;;;;;;;5.93;2.78;;;;;;;7.26;78.41;99550.72;4986431;28;20430;-60
2022/02/13 00:03:14;;;;;;;5.65;3.75;;;;;;;7.26;77.75;99537.84;4982356;28;20154;-58
2022/02/13 00:05:40;;;;;;;4.30;3.20;;;;;;;7.25;77.44;99543.81;4979342;28;20105;-59
2022/02/13 00:08:08;;;;;;;5.60;3.20;;;;;;;7.25;78.05;99542.13;4977625;28;20096;-57
2022/02/13 00:10:35;;;;;;;7.25;4.03;;;;;;;7.24;77.90;99524.06;4982996;28;20042;-59
2022/02/13 00:13:02;;;;;;;5.22;2.75;;;;;;;7.26;77.13;99515.50;4981643;28;20062;-59
2022/02/13 00:15:29;;;;;;;3.47;1.52;;;;;;;7.26;77.51;99512.06;4981322;28;20541;-58
2022/02/13 00:17:55;;;;;;;4.35;3.50;;;;;;;7.28;78.62;99507.78;4982515;28;20626;-59
2022/02/13 00:20:23;;;;;;;4.70;2.10;;;;;;;7.26;77.96;99496.63;4979610;28;20390;-61
2022/02/13 00:22:50;;;;;;;2.92;1.10;;;;;;;7.22;79.17;99500.88;4980222;28;20057;-60
2022/02/13 00:25:17;;;;;;;3.42;2.85;;;;;;;7.24;78.64;99499.19;4980505;28;20046;-60
2022/02/13 00:27:45;;;;;;;5.72;3.10;;;;;;;7.24;79.33;99498.31;4982665;28;20066;-59
2022/02/13 00:30:15;;;;;;;5.03;2.00;;;;;;;7.26;78.47;99491.47;4978619;28;20050;-58
2022/02/13 00:32:43;;;;;;;5.05;2.20;;;;;;;7.27;77.67;99488.91;4977648;28;20658;-59
2022/02/13 00:35:12;;;;;;;2.38;1.00;;;;;;;7.28;78.37;99485.47;4984995;28;20105;-60
2022/02/13 00:37:40;;;;;;;3.25;1.50;;;;;;;7.31;79.03;99492.31;4978735;28;21758;-60
2022/02/13 00:40:07;;;;;;;3.92;1.65;;;;;;;7.34;77.75;99484.59;4979989;28;20058;-61
2022/02/13 00:42:34;;;;;;;3.28;1.67;;;;;;;7.34;78.83;99479.47;4980684;28;20097;-59
2022/02/13 00:45:02;;;;;;;5.32;2.22;;;;;;;7.37;77.75;99474.31;4978655;28;20038;-56
2022/02/13 00:47:28;;;;;;;3.28;1.83;;;;;;;7.37;78.42;99469.16;4981070;28;21798;-54
2022/02/13 00:49:55;;;;;;;5.05;2.88;;;;;;;7.40;78.79;99465.72;4979529;28;20054;-57
2022/02/13 00:52:21;;;;;;;6.38;2.97;;;;;;;7.40;77.90;99453.69;4984327;28;20054;-59
2022/02/13 00:54:48;;;;;;;7.07;3.08;;;;;;;7.42;78.82;99454.56;4980959;28;20050;-58
2022/02/13 00:57:14;;;;;;;7.72;2.80;;;;;;;7.43;78.57;99448.53;4980612;28;21807;-59
2022/02/13 00:59:41;;;;;;;7.10;3.40;;;;;;;7.42;78.68;99446.81;4983340;28;20093;-56
2022/02/13 01:02:08;;;;;;;6.85;2.92;;;;;;;7.44;78.93;99444.25;4983374;28;20458;-57
2022/02/13 01:04:34;;;;;;;7.25;3.55;;;;;;;7.48;77.84;99439.94;4983508;28;20039;-57
2022/02/13 01:07:01;;;;;;;6.97;2.83;;;;;;;7.48;78.65;99440.81;4984193;28;20051;-59
2022/02/13 01:09:27;;;;;;;4.07;2.67;;;;;;;7.51;78.05;99430.50;4983519;28;20046;-58
2022/02/13 01:11:54;;;;;;;5.28;3.35;;;;;;;7.52;77.75;99436.50;4984173;28;20100;-60
2022/02/13 01:14:21;;;;;;;5.18;2.03;;;;;;;7.51;77.69;99419.34;4985667;28;20102;-57
2022/02/13 01:16:47;;;;;;;4.72;3.33;;;;;;;7.51;78.02;99419.34;4984708;28;20058;-61
2022/02/13 01:19:14;;;;;;;2.88;1.42;;;;;;;7.53;77.49;99425.38;4988202;28;20078;-59
2022/02/13 01:21:40;;;;;;;2.00;0.98;;;;;;;7.54;77.74;99414.19;4985029;28;20116;-56
2022/02/13 01:24:07;;;;;;;3.03;1.13;;;;;;;7.54;78.28;99419.34;4984688;28;20647;-60
2022/02/13 01:26:33;;;;;;;0.98;0.50;;;;;;;7.53;78.13;99412.47;4984429;28;20068;-60
2022/02/13 01:29:00;;;;;;;2.72;0.73;;;;;;;7.53;78.95;99412.47;4984887;28;20681;-59
2022/02/13 01:31:27;;;;;;;6.25;3.47;;;;;;;7.51;78.23;99411.59;4988271;28;20083;-60
2022/02/13 01:33:54;;;;;;;2.05;0.80;;;;;;;7.52;79.32;99410.75;4983156;28;20070;-59
2022/02/13 01:36:21;;;;;;;2.65;1.02;;;;;;;7.52;77.59;99410.75;4983382;28;20046;-59
2022/02/13 01:38:47;;;;;;;4.47;3.50;;;;;;;7.52;79.06;99403.00;4982415;28;20049;-58
2022/02/13 01:41:14;;;;;;;3.92;1.42;;;;;;;7.55;78.99;99410.75;4983211;28;20054;-57
2022/02/13 01:43:41;;;;;;;3.75;3.05;;;;;;;7.56;77.82;99397.00;4988108;28;20137;-58
2022/02/13 01:46:07;;;;;;;2.75;1.33;;;;;;;7.56;78.31;99402.16;4983495;28;20414;-57
2022/02/13 01:48:34;;;;;;;1.48;0.82;;;;;;;7.58;78.47;99384.97;4984203;28;20148;-58
2022/02/13 01:51:01;;;;;;;2.15;1.00;;;;;;;7.57;79.44;99383.25;4982005;28;20170;-59
2022/02/13 01:53:43;;;;;;;2.97;1.15;;;;;;;7.56;78.99;99386.69;4979693;28;20050;-56
2022/02/13 01:56:12;;;;;;;1.98;0.80;;;;;;;7.58;78.39;99379.81;4982849;28;20116;-61
2022/02/13 01:58:39;;;;;;;2.08;1.00;;;;;;;7.59;79.00;99381.53;4982373;28;20047;-60
2022/02/13 02:01:06;;;;;;;2.90;0.82;;;;;;;7.59;79.25;99381.53;4980479;28;20105;-59
2022/02/13 02:03:33;;;;;;;3.35;2.53;;;;;;;7.60;79.14;99372.94;4981753;28;20050;-60
2022/02/13 02:05:59;;;;;;;2.55;2.03;;;;;;;7.59;78.85;99371.22;4979970;28;20522;-59
2022/02/13 02:08:26;;;;;;;3.03;2.33;;;;;;;7.63;79.15;99362.63;4982914;28;20050;-59
2022/02/13 02:10:53;;;;;;;3.85;2.33;;;;;;;7.64;79.68;99366.94;4981742;28;20050;-57
2022/02/13 02:13:21;;;;;;;3.25;1.55;;;;;;;7.63;79.80;99352.31;4983090;28;20050;-57
2022/02/13 02:15:48;;;;;;;1.95;0.98;;;;;;;7.67;79.73;99369.47;4983642;28;20068;-61
2022/02/13 02:18:15;;;;;;;4.05;1.55;;;;;;;7.68;78.95;99360.91;4984653;28;20051;-59
2022/02/13 02:20:43;;;;;;;6.80;2.28;;;;;;;7.70;79.71;99353.19;4982296;28;20061;-57
2022/02/13 02:23:10;;;;;;;5.10;2.47;;;;;;;7.70;79.85;99356.59;4979878;28;20042;-55
2022/02/13 02:25:39;;;;;;;6.70;4.50;;;;;;;7.69;80.01;99347.16;4980558;28;20106;-59
2022/02/13 02:28:06;;;;;;;4.15;1.20;;;;;;;7.66;79.67;99349.72;4983272;28;20046;-58
2022/02/13 02:30:36;;;;;;;6.45;3.35;;;;;;;7.69;79.34;99344.56;4982676;28;20055;-58
2022/02/13 02:33:03;;;;;;;5.82;2.03;;;;;;;7.70;79.13;99342.88;4980447;28;20390;-60
2022/02/13 02:35:30;;;;;;;4.60;1.77;;;;;;;7.70;78.74;99332.56;4981638;28;20050;-58
2022/02/13 02:37:57;;;;;;;5.70;2.92;;;;;;;7.70;79.47;99348.03;4979690;28;20058;-58
2022/02/13 02:40:24;;;;;;;3.22;1.17;;;;;;;7.72;78.98;99338.56;4980542;28;20067;-59
2022/02/13 02:42:51;;;;;;;5.18;2.03;;;;;;;7.72;79.27;99331.69;4981747;28;20086;-59
2022/02/13 02:45:18;;;;;;;2.45;1.15;;;;;;;7.74;80.47;99328.25;4979321;28;20135;-58
2022/02/13 02:47:45;;;;;;;4.75;3.22;;;;;;;7.74;79.04;99318.78;4983920;28;20569;-59
2022/02/13 02:50:16;;;;;;;2.28;1.25;;;;;;;7.77;80.48;99308.44;4982490;28;20391;-60
2022/02/13 02:52:43;;;;;;;2.88;1.15;;;;;;;7.76;79.33;99300.72;4978320;28;20109;-58
2022/02/13 02:55:11;;;;;;;2.60;1.88;;;;;;;7.77;79.19;99305.03;4979939;28;20077;-60
2022/02/13 02:57:38;;;;;;;4.05;3.72;;;;;;;7.78;79.24;99297.28;4979696;28;20046;-59
2022/02/13 03:00:06;;;;;;;4.80;2.38;;;;;;;7.74;80.14;99297.31;4975309;28;20049;-57
2022/02/13 03:02:34;;;;;;;2.28;1.75;;;;;;;7.77;79.63;99297.31;4978770;28;20052;-60
2022/02/13 03:05:01;;;;;;;1.48;0.80;;;;;;;7.78;80.20;99296.44;4979639;28;20047;-57
2022/02/13 03:07:28;;;;;;;3.72;0.80;;;;;;;7.79;79.78;99280.09;4979685;28;20046;-58
2022/02/13 03:09:58;;;;;;;2.17;1.73;;;;;;;7.78;79.44;99275.81;4979142;28;20743;-62
2022/02/13 03:12:25;;;;;;;8.32;1.33;;;;;;;7.80;79.52;99280.09;4981600;28;20050;-61
2022/02/13 03:14:53;;;;;;;3.22;0.95;;;;;;;7.78;80.88;99262.91;4979063;28;20413;-57
2022/02/13 03:17:20;;;;;;;6.53;2.95;;;;;;;7.79;81.09;99259.47;4981770;28;20077;-61
2022/02/13 03:19:48;;;;;;;3.22;0.93;;;;;;;7.80;79.97;99258.63;4982496;28;20054;-56
2022/02/13 03:22:15;;;;;;;3.15;1.20;;;;;;;7.80;81.45;99256.88;4979592;28;21270;-58
2022/02/13 03:24:42;;;;;;;4.35;1.35;;;;;;;7.81;81.03;99252.59;4979950;28;20061;-60
2022/02/13 03:27:09;;;;;;;2.80;1.10;;;;;;;7.84;79.94;99250.00;4978049;28;20052;-61
2022/02/13 03:29:36;;;;;;;7.45;1.77;;;;;;;7.86;80.03;99250.84;4980029;28;20102;-60
2022/02/13 03:32:04;;;;;;;3.97;1.35;;;;;;;7.86;80.05;99248.25;4979211;28;20050;-58
2022/02/13 03:34:30;;;;;;;5.10;1.40;;;;;;;7.84;80.82;99242.28;4981838;28;20050;-57
2022/02/13 03:36:57;;;;;;;9.27;1.67;;;;;;;7.84;80.48;99234.53;4979649;28;20042;-58
2022/02/13 03:39:24;;;;;;;3.92;1.65;;;;;;;7.87;80.97;99226.78;4978698;28;20058;-59
2022/02/13 03:41:52;;;;;;;4.72;1.63;;;;;;;7.87;80.67;99216.47;4980648;28;20073;-59
2022/02/13 03:44:18;;;;;;;5.63;1.50;;;;;;;7.89;80.67;99209.59;4977865;28;20097;-59
2022/02/13 03:46:45;;;;;;;6.93;1.70;;;;;;;7.89;81.04;99212.16;4980461;28;20050;-60
2022/02/13 03:49:13;;;;;;;7.10;1.60;;;;;;;7.89;80.59;99209.59;4981137;28;20102;-57
2022/02/13 03:51:40;;;;;;;7.00;2.05;;;;;;;7.90;81.21;99203.56;4980335;28;20046;-60
2022/02/13 03:54:09;;;;;;;5.57;2.13;;;;;;;7.89;80.92;99193.25;4976554;28;20149;-57
2022/02/13 03:56:36;;;;;;;4.85;1.50;;;;;;;7.91;81.40;99186.38;4978972;28;20101;-58
2022/02/13 03:59:03;;;;;;;8.23;3.92;;;;;;;7.87;80.87;99188.09;4982982;28;20800;-58
2022/02/13 04:01:31;;;;;;;7.78;2.70;;;;;;;7.88;81.51;99181.22;4980276;28;20133;-58
2022/02/13 04:03:57;;;;;;;5.18;1.58;;;;;;;7.88;80.68;99187.25;4981772;28;20046;-58
2022/02/13 04:06:25;;;;;;;5.38;1.73;;;;;;;7.89;81.65;99183.81;4978756;28;20928;-59
2022/02/13 04:08:52;;;;;;;10.75;2.47;;;;;;;7.90;81.22;99190.66;4979769;28;20082;-61
2022/02/13 04:11:18;;;;;;;4.05;1.63;;;;;;;7.91;81.39;99176.91;4979801;28;20046;-60
2022/02/13 04:13:49;;;;;;;8.68;2.25;;;;;;;7.93;80.58;99185.50;4979041;28;20058;-57
2022/02/13 04:16:16;;;;;;;4.53;2.85;;;;;;;7.91;81.45;99174.31;4977164;28;20070;-57
2022/02/13 04:18:44;;;;;;;8.15;1.92;;;;;;;7.87;81.55;99172.63;4980177;28;20054;-58
2022/02/13 04:21:11;;;;;;;4.28;1.90;;;;;;;7.89;81.07;99167.47;4976111;28;20046;-60
2022/02/13 04:23:38;;;;;;;5.15;2.05;;;;;;;7.92;80.44;99158.00;4976916;28;20042;-60
2022/02/13 04:26:05;;;;;;;5.50;1.67;;;;;;;7.89;80.93;99165.75;4980919;28;20061;-60
2022/02/13 04:28:32;;;;;;;8.75;2.67;;;;;;;7.90;81.14;99164.03;4976986;28;20376;-59
2022/02/13 04:30:59;;;;;;;6.50;2.17;;;;;;;7.87;80.40;99146.84;4984890;28;20054;-59
2022/02/13 04:33:26;;;;;;;6.85;1.90;;;;;;;7.90;80.80;99146.81;4979373;28;20062;-61
2022/02/13 04:35:52;;;;;;;3.47;1.63;;;;;;;7.91;80.58;99139.97;4987945;28;20050;-59
2022/02/13 04:38:22;;;;;;;8.63;1.98;;;;;;;7.94;80.58;99135.63;4988230;28;20048;-58
2022/02/13 04:40:49;;;;;;;5.88;2.00;;;;;;;7.94;80.17;99125.31;4990931;28;20089;-59
2022/02/13 04:43:17;;;;;;;5.53;1.40;;;;;;;7.96;81.69;99117.56;4989809;28;20200;-60
2022/02/13 04:45:44;;;;;;;7.75;1.83;;;;;;;7.94;81.04;99120.16;4984840;28;20383;-60
2022/02/13 04:48:11;;;;;;;7.15;1.95;;;;;;;7.94;80.71;99112.41;4988815;28;20129;-59
2022/02/13 04:50:38;;;;;;;7.93;1.75;;;;;;;7.98;80.84;99110.69;4985907;28;20055;-60
2022/02/13 04:53:05;;;;;;;5.03;1.77;;;;;;;7.95;81.68;99096.09;4986363;28;20656;-59
2022/02/13 04:55:33;;;;;;;4.90;1.60;;;;;;;7.95;80.90;99101.25;4986108;28;20053;-59
2022/02/13 04:58:03;;;;;;;4.93;3.38;;;;;;;7.95;81.41;99101.25;4983510;28;20042;-55
2022/02/13 05:00:31;;;;;;;6.07;1.83;;;;;;;7.95;80.68;99100.41;4987434;28;20497;-60
2022/02/13 05:02:58;;;;;;;6.95;1.80;;;;;;;7.98;81.20;99085.75;4982114;28;20161;-60
2022/02/13 05:05:26;;;;;;;6.57;1.35;;;;;;;7.98;81.47;99080.59;4987414;28;20109;-62
2022/02/13 05:07:53;;;;;;;6.45;1.73;;;;;;;7.99;81.47;99081.44;4986296;28;20057;-59
2022/02/13 05:10:21;;;;;;;8.73;1.88;;;;;;;7.97;81.42;99078.88;4986871;28;20042;-60
2022/02/13 05:12:51;;;;;;;7.90;1.95;;;;;;;8.01;80.83;99065.97;4986347;28;20062;-59
2022/02/13 05:15:19;;;;;;;10.02;2.08;;;;;;;7.98;81.19;99065.09;4982347;28;20046;-59
2022/02/13 05:17:46;;;;;;;6.30;3.22;;;;;;;7.98;81.15;99062.53;4983360;28;20045;-60
2022/02/13 05:20:14;;;;;;;4.68;1.55;;;;;;;7.97;81.16;99053.09;4982839;28;20063;-59
2022/02/13 05:22:41;;;;;;;4.55;2.72;;;;;;;7.98;80.31;99049.63;4986111;28;20058;-58
2022/02/13 05:25:08;;;;;;;5.82;1.25;;;;;;;8.01;80.82;99048.78;4984132;28;20116;-58
2022/02/13 05:27:36;;;;;;;3.28;1.50;;;;;;;8.00;80.86;99053.94;4986259;28;20084;-59
2022/02/13 05:30:03;;;;;;;4.60;1.40;;;;;;;7.98;80.99;99049.63;4990144;28;20054;-60
2022/02/13 05:32:31;;;;;;;6.28;1.67;;;;;;;7.97;80.70;99047.06;4983444;28;20050;-58
2022/02/13 05:34:58;;;;;;;2.70;1.38;;;;;;;7.99;80.40;99045.34;4986284;28;20073;-59
2022/02/13 05:37:25;;;;;;;3.22;1.33;;;;;;;7.94;79.86;99037.66;4986407;28;20050;-55
2022/02/13 05:39:53;;;;;;;6.18;1.38;;;;;;;7.98;80.18;99043.66;4982079;28;20049;-59
2022/02/13 05:42:23;;;;;;;2.83;1.02;;;;;;;7.97;80.17;99037.63;4982744;28;20053;-59
2022/02/13 05:44:52;;;;;;;3.30;1.10;;;;;;;7.97;80.43;99032.47;4985415;28;20126;-58
2022/02/13 05:47:19;;;;;;;5.85;1.42;;;;;;;7.96;80.88;99035.06;4988008;28;20081;-57
2022/02/13 05:49:47;;;;;;;8.70;1.55;;;;;;;7.96;80.37;99033.34;4985274;28;20047;-58
2022/02/13 05:52:14;;;;;;;7.00;1.65;;;;;;;7.92;80.59;99023.94;4982221;28;20050;-60
2022/02/13 05:54:43;;;;;;;4.38;2.55;;;;;;;7.93;80.68;99017.91;4982798;28;20659;-58
2022/02/13 05:57:11;;;;;;;5.93;1.20;;;;;;;7.92;80.19;99015.31;4983958;28;20046;-60
2022/02/13 05:59:38;;;;;;;6.72;2.75;;;;;;;7.92;79.46;99005.88;4985428;28;20073;-58
2022/02/13 06:02:05;;;;;;;4.90;2.78;;;;;;;7.93;80.16;98999.84;4983265;28;20057;-58
2022/02/13 06:04:32;;;;;;;4.38;1.08;;;;;;;7.91;80.37;98996.41;4986847;28;20561;-58
2022/02/13 06:06:59;;;;;;;3.05;1.02;;;;;;;7.91;79.87;98988.66;4982763;28;20729;-60
2022/02/13 06:09:26;;;;;;;4.88;2.45;;;;;;;7.89;79.82;98982.69;4984769;28;20051;-59
2022/02/13 06:11:53;;;;;;;2.40;0.43;;;;;;;7.88;79.85;98962.94;4985533;28;20050;-60
2022/02/13 06:14:20;;;;;;;2.33;1.08;;;;;;;7.88;79.62;98964.66;4987718;28;20047;-56
2022/02/13 06:16:49;;;;;;;3.72;2.72;;;;;;;7.88;79.83;98964.66;4985633;28;20485;-60
2022/02/13 06:19:16;;;;;;;1.75;0.77;;;;;;;7.84;78.94;98966.41;4983780;28;20062;-55
2022/02/13 06:21:44;;;;;;;5.95;1.10;;;;;;;7.84;78.79;98956.94;4986359;28;20050;-56
2022/02/13 06:24:11;;;;;;;4.32;1.15;;;;;;;7.83;79.48;98951.81;4984022;28;20069;-60
2022/02/13 06:26:39;;;;;;;3.92;1.23;;;;;;;7.82;78.92;98957.84;4987447;28;20081;-61
2022/02/13 06:29:08;;;;;;;5.45;0.80;;;;;;;7.77;79.33;98951.88;4985533;28;20642;-58
2022/02/13 06:31:35;;;;;;;4.60;2.08;;;;;;;7.76;78.64;98950.13;4984206;28;20055;-60
2022/02/13 06:34:02;;;;;;;3.83;0.70;;;;;;;7.74;79.14;98941.59;4980227;28;20054;-60
2022/02/13 06:36:30;;;;;;;4.47;0.93;;;;;;;7.72;79.11;98937.31;4986135;28;20441;-58
2022/02/13 06:38:57;;;;;;;4.13;0.95;;;;;;;7.71;79.21;98938.16;4978698;28;20141;-59
2022/02/13 06:41:23;;;;;;;5.55;2.65;;;;;;;7.69;79.11;98932.16;4979679;28;20120;-61
2022/02/13 06:43:50;;;;;;;4.72;2.42;;;;;;;7.66;78.64;98914.16;4983432;28;20058;-59
2022/02/13 06:46:18;;;;;;;4.07;1.00;;;;;;;7.65;78.58;98917.59;4987234;28;20057;-60
2022/02/13 06:48:45;;;;;;;3.92;1.30;;;;;;;7.63;78.52;98903.03;4983053;28;20058;-60
2022/02/13 06:51:13;;;;;;;11.57;1.65;;;;;;;7.63;78.66;98898.72;4977169;28;20160;-61
2022/02/13 06:53:40;;;;;;;5.47;2.35;;;;;;;7.60;78.31;98893.56;4978841;28;20050;-60
2022/02/13 06:56:08;;;;;;;3.30;1.38;;;;;;;7.56;79.72;98900.50;4980931;28;20129;-60
2022/02/13 06:58:35;;;;;;;5.15;2.38;;;;;;;7.56;79.55;98899.63;4977455;28;20058;-58
2022/02/13 07:01:03;;;;;;;4.55;1.20;;;;;;;7.54;78.15;98886.75;4976067;28;20120;-59
2022/02/13 07:03:30;;;;;;;6.25;2.90;;;;;;;7.55;78.71;98885.03;4977510;28;20051;-56
2022/02/13 07:05:58;;;;;;;6.32;1.13;;;;;;;7.52;78.77;98879.91;4979959;28;20049;-57
2022/02/13 07:08:25;;;;;;;4.82;1.08;;;;;;;7.50;78.06;98866.22;4975963;28;21041;-60
2022/02/13 07:10:52;;;;;;;8.70;2.13;;;;;;;7.49;77.64;98874.81;4982037;28;20081;-58
2022/02/13 07:13:19;;;;;;;5.05;1.10;;;;;;;7.46;77.85;98863.66;4979715;28;20089;-57
2022/02/13 07:15:45;;;;;;;5.68;1.40;;;;;;;7.44;77.22;98857.66;4975820;28;20450;-59
2022/02/13 07:18:12;;;;;;;4.40;1.05;;;;;;;7.42;76.59;98853.38;4976596;28;20046;-58
2022/02/13 07:20:40;;;;;;;7.00;1.10;;;;;;;7.37;76.61;98843.13;4977064;28;20049;-57
2022/02/13 07:23:08;;;;;;;5.20;1.85;;;;;;;7.38;75.07;98836.25;4979906;28;20434;-57
2022/02/13 07:25:36;;;;;;;3.50;1.15;;;;;;;7.37;76.69;98839.69;4980530;28;20105;-60
2022/02/13 07:28:58;;;;;;;3.05;1.10;;;;;;;7.37;75.96;98834.53;4980176;28;20044;-59
2022/02/13 07:30:51;;;;;;;5.43;2.17;;;;;;;7.34;74.85;98814.81;4978661;28;20158;-60
2022/02/13 07:33:18;;;;;;;5.28;1.42;;;;;;;7.31;75.19;98820.00;4985272;28;20051;-60
2022/02/13 07:35:45;;;;;;;3.15;0.52;;;;;;;7.28;75.01;98814.88;4978256;28;20062;-60
2022/02/13 07:38:12;;;;;;;3.13;0.77;;;;;;;7.28;75.08;98804.56;4979701;28;20042;-60
2022/02/13 07:40:39;;;;;;;5.68;2.05;;;;;;;7.25;74.38;98810.59;4978583;28;20086;-58
2022/02/13 07:43:06;;;;;;;6.50;0.85;;;;;;;7.27;74.39;98816.63;4977593;28;20475;-60
2022/02/13 07:45:34;;;;;;;4.13;1.73;;;;;;;7.25;74.76;98800.31;4981781;28;20061;-58
2022/02/13 07:48:01;;;;;;;3.72;0.90;;;;;;;7.21;74.55;98793.47;4975994;28;20081;-55
2022/02/13 07:50:28;;;;;;;11.27;1.38;;;;;;;7.20;74.01;98800.34;4981901;28;20101;-60
2022/02/13 07:52:55;;;;;;;9.60;1.45;;;;;;;7.19;75.46;98796.06;4980179;28;20126;-59
2022/02/13 07:55:22;;;;;;;5.28;1.95;;;;;;;7.14;73.84;98782.38;4977245;28;20061;-57
2022/02/13 07:57:49;;;;;;;3.65;1.63;;;;;;;7.18;74.05;98788.34;4979927;28;20045;-61
2022/02/13 08:00:16;;;;;;;2.65;0.65;;;;;;;7.19;73.47;98785.75;4982163;28;20660;-58
2022/02/13 08:02:43;;;;;;;6.03;0.60;;;;;;;7.15;74.41;98784.09;4984854;28;20061;-60
2022/02/13 08:05:12;;;;;;;6.72;0.95;;;;;;;7.13;74.09;98785.81;4982707;28;20732;-61
2022/02/13 08:07:46;;;;;;;1.33;0.70;;;;;;;7.12;74.75;98789.25;4978861;28;20101;-59
2022/02/13 08:10:15;;;;;;;3.13;0.80;;;;;;;7.11;75.06;98781.53;4985728;28;20050;-59
2022/02/13 08:12:43;;;;;;;5.38;0.50;;;;;;;7.09;73.22;98789.28;4981340;28;20122;-60
2022/02/13 08:15:10;;;;;;;2.75;1.67;;;;;;;7.11;74.34;98791.84;4974565;28;20086;-58
2022/02/13 08:17:38;;;;;;;5.00;1.98;;;;;;;7.10;74.00;98767.84;4976786;28;20047;-58
2022/02/13 08:20:07;;;;;;;6.32;0.70;;;;;;;7.12;74.50;98772.97;4976625;28;20148;-59
2022/02/13 08:22:35;;;;;;;3.42;1.67;;;;;;;7.11;73.70;98761.81;4976473;28;20462;-60
2022/02/13 08:25:08;;;;;;;3.13;1.65;;;;;;;7.05;74.33;98756.72;4977310;28;20132;-61
2022/02/13 08:27:35;;;;;;;5.57;2.08;;;;;;;7.08;73.62;98766.97;4981513;28;20069;-58
2022/02/13 08:30:03;;;;;;;2.65;1.92;;;;;;;7.07;73.73;98755.81;4980209;28;20047;-58
2022/02/13 08:32:31;;;;;;;4.53;0.43;;;;;;;7.06;73.90;98758.44;4983978;28;20057;-59
2022/02/13 08:34:57;;;;;;;3.72;0.93;;;;;;;7.07;73.79;98754.97;4986815;28;20059;-59
2022/02/13 08:37:25;;;;;;;3.22;0.93;;;;;;;7.06;74.10;98758.44;4985453;28;20465;-61
2022/02/13 08:39:52;;;;;;;6.13;1.33;;;;;;;6.99;73.33;98749.06;4986982;28;20100;-61
2022/02/13 08:42:19;;;;;;;3.35;2.15;;;;;;;7.05;74.37;98748.97;4979283;28;20494;-59
2022/02/13 08:44:46;;;;;;;4.57;2.88;;;;;;;7.03;73.81;98737.84;4983157;28;20076;-57
2022/02/13 08:47:15;;;;;;;4.07;2.22;;;;;;;7.01;72.72;98744.72;4974237;28;20050;-59
2022/02/13 08:49:42;;;;;;;3.42;0.80;;;;;;;7.01;72.73;98737.00;4985168;28;20046;-58
2022/02/13 08:52:11;;;;;;;3.30;0.40;;;;;;;7.03;73.72;98732.72;4985827;28;20505;-60
2022/02/13 08:54:38;;;;;;;2.28;0.63;;;;;;;7.01;72.57;98730.16;4982347;28;20510;-59
2022/02/13 08:57:05;;;;;;;8.32;2.03;;;;;;;6.98;72.80;98724.16;4981649;28;20061;-60
2022/02/13 08:59:32;;;;;;;2.50;0.85;;;;;;;6.96;73.59;98725.91;4979553;28;20050;-55
2022/02/13 09:01:59;;;;;;;6.53;1.65;;;;;;;6.98;73.50;98716.44;4989740;28;20505;-56
2022/02/13 09:04:26;;;;;;;4.72;1.13;;;;;;;6.97;72.43;98731.03;4986133;28;20054;-61
2022/02/13 09:06:54;;;;;;;7.90;2.25;;;;;;;7.00;73.61;98719.88;4982774;28;20053;-58
2022/02/13 09:09:23;;;;;;;5.70;2.28;;;;;;;7.01;72.48;98711.25;4978828;28;20042;-57
2022/02/13 09:11:50;;;;;;;4.18;2.25;;;;;;;6.98;72.85;98716.44;4986530;28;20077;-60
2022/02/13 09:14:18;;;;;;;6.90;2.15;;;;;;;6.98;73.03;98714.72;4981739;28;20054;-59
2022/02/13 09:16:45;;;;;;;3.95;2.80;;;;;;;6.96;72.57;98701.03;4983797;28;20130;-60
2022/02/13 09:19:13;;;;;;;4.50;1.83;;;;;;;6.96;72.75;98700.16;4986287;28;20054;-59
2022/02/13 09:21:40;;;;;;;4.80;2.92;;;;;;;6.93;73.12;98701.88;4988009;28;20057;-59
2022/02/13 09:24:08;;;;;;;6.40;2.80;;;;;;;6.94;72.93;98693.31;4989133;28;20145;-59
2022/02/13 09:26:36;;;;;;;4.40;1.67;;;;;;;6.97;73.26;98696.72;4985490;28;20046;-57
2022/02/13 09:29:03;;;;;;;5.63;1.70;;;;;;;6.99;73.28;98695.00;4989618;28;21055;-59
2022/02/13 09:31:30;;;;;;;11.82;2.83;;;;;;;6.96;72.66;98684.72;4986568;28;20112;-59
2022/02/13 09:33:57;;;;;;;3.92;2.45;;;;;;;6.98;73.51;98677.81;4987837;28;20078;-59
2022/02/13 09:36:24;;;;;;;4.40;2.42;;;;;;;6.96;73.30;98685.59;4989726;28;20046;-57
2022/02/13 09:38:53;;;;;;;6.40;3.28;;;;;;;6.96;72.45;98679.56;4985916;28;20054;-58
2022/02/13 09:41:20;;;;;;;7.85;2.92;;;;;;;6.99;73.20;98669.25;4986586;28;20137;-57
2022/02/13 09:43:48;;;;;;;6.05;2.67;;;;;;;6.97;72.63;98660.69;4985196;28;20054;-56
2022/02/13 09:46:18;;;;;;;6.22;4.90;;;;;;;6.97;73.53;98655.53;4989017;28;20061;-58
2022/02/13 09:48:44;;;;;;;7.68;3.80;;;;;;;6.99;72.78;98658.94;4982517;28;20042;-57
2022/02/13 09:51:11;;;;;;;5.50;3.00;;;;;;;6.99;72.77;98658.94;4983739;28;20479;-58
2022/02/13 09:53:37;;;;;;;5.65;3.47;;;;;;;6.97;72.49;98655.53;4985483;28;20054;-59
2022/02/13 09:56:06;;;;;;;7.05;2.00;;;;;;;6.97;73.55;98647.81;4987259;28;20054;-58
2022/02/13 09:58:34;;;;;;;7.88;1.85;;;;;;;6.94;74.18;98636.69;4983063;28;20050;-56
2022/02/13 10:01:10;;;;;;;4.55;3.20;;;;;;;6.96;73.17;98633.25;4990439;28;20054;-56
2022/02/13 10:03:38;;;;;;;;;;;;;;;6.90;74.29;98629.88;4986204;28;20054;-61
2022/02/13 10:06:25;;;;;;;8.88;3.50;;;;;;;6.90;73.41;98619.56;4986568;28;19934;-59
2022/02/13 10:08:54;;;;;;;6.35;3.40;;;;;;;6.94;72.58;98616.09;4980355;28;20050;-62
2022/02/13 10:11:26;;;;;;;5.63;2.72;;;;;;;6.96;72.83;98604.91;4985608;28;20498;-56
2022/02/13 10:13:57;;;;;;;4.22;1.55;;;;;;;6.92;73.41;98601.50;4983188;28;20141;-59
2022/02/13 10:16:26;;;;;;;7.43;2.08;;;;;;;6.93;74.18;98598.94;4983957;28;20054;-59
2022/02/13 10:19:10;;;;;;;6.10;1.90;;;;;;;6.90;73.56;98583.53;4983122;28;20042;-59
2022/02/13 10:21:45;;;;;;;7.38;3.92;;;;;;;6.91;73.27;98580.09;4980942;28;20061;-55
2022/02/13 10:24:19;;;;;;;11.93;3.40;;;;;;;6.91;73.95;98572.38;4980087;28;20059;-57
2022/02/13 10:27:03;;;;;;;8.30;3.67;;;;;;;6.92;73.87;98573.19;4980482;28;20445;-55
2022/02/13 10:29:33;;;;;;;12.10;4.07;;;;;;;6.88;74.79;98584.41;4981312;28;20042;-56
2022/02/13 10:32:23;;;;;;;4.88;2.08;;;;;;;6.88;74.81;98568.97;4986281;28;20109;-56
2022/02/13 10:35:08;;;;;;;6.97;4.28;;;;;;;6.80;73.85;98563.91;4980736;28;20151;-57
2022/02/13 10:37:55;;;;;;;9.23;3.65;;;;;;;6.78;75.09;98563.06;4981196;28;20112;-58
2022/02/13 10:40:25;;;;;;;6.38;2.35;;;;;;;6.79;74.84;98557.06;5007895;28;20058;-58
2022/02/13 10:43:09;;;;;;;;;;;;;;;6.74;74.60;98548.53;4981475;28;20707;-55
2022/02/13 10:45:39;;;;;;;6.32;3.38;;;;;;;6.79;75.08;98529.59;4983233;28;20401;-58
2022/02/13 10:48:08;;;;;;;8.50;4.03;;;;;;;6.77;75.95;98494.47;4984682;28;20100;-59
2022/02/13 10:50:40;;;;;;;4.18;1.58;;;;;;;6.75;76.66;98485.94;4983278;28;20042;-59
2022/02/13 10:53:08;;;;;;;4.32;2.88;;;;;;;6.71;75.47;98484.22;4980597;28;20592;-58
2022/02/13 10:55:36;;;;;;;7.15;3.17;;;;;;;6.71;76.64;98481.66;4982826;28;20154;-59
2022/02/13 10:58:04;;;;;;;9.00;3.53;;;;;;;6.67;77.14;98471.44;4982008;28;20097;-60
2022/02/13 11:00:31;;;;;;;7.18;2.10;;;;;;;6.71;77.62;98463.66;4980901;28;20225;-60
2022/02/13 11:03:04;;;;;;;9.38;3.25;;;;;;;6.73;77.27;98451.63;4982662;28;20168;-60
2022/02/13 11:05:32;;;;;;;7.82;2.75;;;;;;;6.74;77.34;98448.19;4982491;28;20387;-57
2022/02/13 11:08:06;;;;;;;9.25;4.43;;;;;;;6.73;77.65;98447.34;4984096;28;20137;-60
2022/02/13 11:10:36;;;;;;;6.78;3.75;;;;;;;6.75;76.85;98444.75;4985510;28;20053;-61
2022/02/13 11:13:04;;;;;;;;;;;;;;;6.66;77.61;98441.41;4985870;28;20058;-58
2022/02/13 11:15:32;;;;;;;13.85;4.57;;;;;;;6.71;78.52;98432.78;4982963;28;20070;-61
2022/02/13 11:18:05;;;;;;;7.97;4.25;;;;;;;6.68;77.85;98413.94;4985080;28;20113;-57
2022/02/13 11:20:33;;;;;;;6.28;2.03;;;;;;;6.72;78.39;98408.75;4984709;28;20199;-61
2022/02/13 11:23:21;;;;;;;9.30;2.55;;;;;;;6.69;78.89;98410.50;4986140;28;20046;-57
2022/02/13 11:25:53;;;;;;;4.38;1.60;;;;;;;6.75;78.72;98390.72;4983273;28;20053;-65
2022/02/13 11:28:24;;;;;;;4.53;1.52;;;;;;;6.67;78.48;98395.94;4981285;28;21292;-59
2022/02/13 11:30:52;;;;;;;6.35;3.22;;;;;;;6.66;78.91;98397.66;4978737;28;20073;-59
2022/02/13 11:33:40;;;;;;;9.70;4.47;;;;;;;6.64;78.82;98381.41;4979446;28;20050;-58
2022/02/13 11:36:08;;;;;;;6.57;3.30;;;;;;;6.67;79.14;98376.22;4976906;28;20117;-58
2022/02/13 11:38:55;;;;;;;7.53;3.38;;;;;;;6.69;78.21;98384.75;4978407;28;20062;-61
2022/02/13 11:42:02;;;;;;;5.15;2.97;;;;;;;6.73;78.47;98364.13;4981150;28;20050;-59
2022/02/13 11:44:38;;;;;;;5.82;3.42;;;;;;;6.74;78.56;98360.69;4983311;28;20077;-60
2022/02/13 11:47:10;;;;;;;8.10;1.63;;;;;;;6.75;78.55;98346.97;4981431;28;20517;-60